Time;durP1;ratioP1;P1;durP2;ratioP2;P2;SDS_P1;SDS_P2;PMS_P1;PMS_P2;Temp;Humidity;BMP_temperature;BMP_pressure;BME280_temperature;BME280_humidity;BME280_pressure;Samples;Min_cycle;Max_cycle;Signal;HPM_P1;HPM_P2
2021/01/14 00:00:03;;;;;;;10.57;4.38;;;2.80;79.80;;;;;;4938638;29;20461;-79
2021/01/14 00:02:28;;;;;;;7.10;3.35;;;2.80;79.80;;;;;;4956179;29;20031;-79
2021/01/14 00:04:55;;;;;;;9.00;3.42;;;2.80;79.90;;;;;;4920270;29;20123;-79
2021/01/14 00:07:21;;;;;;;10.98;3.90;;;2.80;79.80;;;;;;4938718;29;20031;-79
2021/01/14 00:09:47;;;;;;;11.15;4.80;;;2.80;80.50;;;;;;4938907;29;20472;-79
2021/01/14 00:12:14;;;;;;;10.40;4.35;;;2.80;79.90;;;;;;4938779;29;20032;-80
2021/01/14 00:14:40;;;;;;;10.05;4.03;;;2.80;79.90;;;;;;4938615;29;20121;-80
2021/01/14 00:17:06;;;;;;;6.35;2.88;;;2.90;79.80;;;;;;4938535;29;20027;-79
2021/01/14 00:19:32;;;;;;;10.52;4.47;;;2.90;79.90;;;;;;4923298;29;20388;-80
2021/01/14 00:21:57;;;;;;;12.48;3.97;;;2.90;79.80;;;;;;4938733;29;20050;-80
2021/01/14 00:24:23;;;;;;;8.00;3.80;;;2.90;79.70;;;;;;4938762;29;20031;-79
2021/01/14 00:26:49;;;;;;;9.20;3.58;;;2.90;79.60;;;;;;4938676;29;20111;-80
2021/01/14 00:29:15;;;;;;;9.15;3.25;;;2.90;79.60;;;;;;4938894;29;20499;-80
2021/01/14 00:31:41;;;;;;;10.68;5.28;;;3.00;79.60;;;;;;4938597;29;20472;-79
2021/01/14 00:34:07;;;;;;;7.63;3.58;;;2.90;79.50;;;;;;4922411;29;20039;-79
2021/01/14 00:39:27;;;;;;;3.85;1.90;;;2.90;79.60;;;;;;4955222;29;20038;-80
2021/01/14 00:41:54;;;;;;;6.93;3.45;;;2.90;79.60;;;;;;4940673;29;20544;-80
2021/01/14 00:44:20;;;;;;;10.15;4.82;;;2.90;79.60;;;;;;4955669;29;20027;-79
2021/01/14 00:46:46;;;;;;;9.70;3.40;;;2.90;79.50;;;;;;4938052;29;20019;-80
2021/01/14 00:49:12;;;;;;;11.02;4.60;;;2.90;79.50;;;;;;4938295;29;20515;-79
2021/01/14 00:51:38;;;;;;;10.25;4.22;;;3.00;79.70;;;;;;4940345;29;20027;-80
2021/01/14 00:54:05;;;;;;;8.02;3.78;;;3.00;79.70;;;;;;4937760;29;20047;-80
2021/01/14 00:56:36;;;;;;;5.78;2.38;;;3.00;79.70;;;;;;4938234;29;20029;-79
2021/01/14 00:59:06;;;;;;;6.25;3.00;;;3.00;79.70;;;;;;4955305;29;20381;-79
2021/01/14 01:01:32;;;;;;;9.82;4.63;;;3.10;79.70;;;;;;4938499;29;20476;-79
2021/01/14 01:03:58;;;;;;;3.20;1.73;;;3.10;79.70;;;;;;4937727;29;20480;-80
2021/01/14 01:06:32;;;;;;;9.48;4.18;;;3.20;79.90;;;;;;4937582;29;20027;-79
2021/01/14 01:08:58;;;;;;;11.80;4.90;;;3.20;79.70;;;;;;4937778;29;20050;-80
2021/01/14 01:11:25;;;;;;;8.43;3.90;;;3.20;79.70;;;;;;4921771;29;20698;-79
2021/01/14 01:13:51;;;;;;;9.82;3.35;;;3.30;79.70;;;;;;4937947;29;20039;-80
2021/01/14 01:16:18;;;;;;;9.63;3.75;;;3.30;79.70;;;;;;4937323;29;20057;-79
2021/01/14 01:18:45;;;;;;;8.07;3.90;;;3.30;79.90;;;;;;4924316;29;20090;-79
2021/01/14 01:21:11;;;;;;;6.57;3.10;;;3.40;79.70;;;;;;4954874;29;20443;-79
2021/01/14 01:23:37;;;;;;;9.10;4.10;;;3.40;79.70;;;;;;4921762;29;20489;-79
2021/01/14 01:26:03;;;;;;;9.13;3.55;;;3.40;79.60;;;;;;4938040;29;20066;-80
2021/01/14 01:28:29;;;;;;;7.45;3.35;;;3.50;79.60;;;;;;4954425;29;20055;-79
2021/01/14 01:30:55;;;;;;;9.75;4.55;;;3.50;79.60;;;;;;4937870;29;20051;-79
2021/01/14 01:33:25;;;;;;;7.90;3.88;;;3.50;79.40;;;;;;4937277;29;20035;-79
2021/01/14 01:35:52;;;;;;;4.30;1.83;;;3.50;79.40;;;;;;4937307;29;20028;-79
2021/01/14 01:38:18;;;;;;;9.70;3.97;;;3.50;79.40;;;;;;4937180;29;20027;-79
2021/01/14 01:40:44;;;;;;;8.00;3.25;;;3.50;79.50;;;;;;4939356;29;20150;-79
2021/01/14 01:43:10;;;;;;;6.82;3.45;;;3.50;79.40;;;;;;4937181;29;20502;-79
2021/01/14 01:45:37;;;;;;;8.68;3.47;;;3.50;79.30;;;;;;4921359;29;20051;-79
2021/01/14 01:48:04;;;;;;;8.70;3.80;;;3.50;79.30;;;;;;4918225;29;20079;-79
2021/01/14 01:50:29;;;;;;;12.43;3.95;;;3.50;79.20;;;;;;4936431;29;20027;-79
2021/01/14 01:52:57;;;;;;;6.90;3.42;;;3.60;79.40;;;;;;4918215;29;20365;-79
2021/01/14 01:55:23;;;;;;;6.47;2.53;;;3.60;79.30;;;;;;4936953;29;20030;-79
2021/01/14 01:57:49;;;;;;;6.28;2.88;;;3.60;80.00;;;;;;4921589;29;20031;-79
2021/01/14 02:00:15;;;;;;;7.57;3.67;;;3.60;79.10;;;;;;4923131;29;20488;-78
2021/01/14 02:02:41;;;;;;;9.85;4.00;;;3.50;79.10;;;;;;4921323;29;20035;-79
2021/01/14 02:05:07;;;;;;;8.85;3.55;;;3.60;79.20;;;;;;4937716;29;20027;-78
2021/01/14 02:07:36;;;;;;;9.65;4.40;;;3.60;79.20;;;;;;4941178;29;20051;-78
2021/01/14 02:10:30;;;;;;;5.30;2.47;;;3.40;78.30;;;;;;4936451;29;20110;-79
2021/01/14 02:13:11;;;;;;;6.22;2.92;;;3.30;78.10;;;;;;4938679;29;20059;-79
2021/01/14 02:15:38;;;;;;;11.95;4.40;;;3.20;78.40;;;;;;4957751;29;20051;-78
2021/01/14 02:18:05;;;;;;;6.30;3.35;;;3.20;78.70;;;;;;4924268;29;20035;-79
2021/01/14 02:20:32;;;;;;;9.93;3.78;;;3.20;78.40;;;;;;4937808;29;20028;-80
2021/01/14 02:23:10;;;;;;;8.68;3.50;;;2.90;77.20;;;;;;4941365;29;20031;-80
2021/01/14 02:26:09;;;;;;;7.18;2.92;;;2.70;77.60;;;;;;4941660;29;20015;-80
2021/01/14 02:28:35;;;;;;;2.42;1.73;;;2.60;77.90;;;;;;4934131;29;20044;-80
2021/01/14 02:31:02;;;;;;;4.82;2.25;;;2.50;78.20;;;;;;4941199;29;20430;-80
2021/01/14 02:33:27;;;;;;;4.45;1.95;;;2.40;78.20;;;;;;4939598;29;20496;-80
2021/01/14 02:35:53;;;;;;;5.55;2.30;;;2.40;78.40;;;;;;4940437;29;20073;-79
2021/01/14 02:38:19;;;;;;;8.57;2.55;;;2.30;78.50;;;;;;4958097;29;20027;-79
2021/01/14 02:40:45;;;;;;;3.55;1.63;;;2.40;78.70;;;;;;4924574;29;20026;-80
2021/01/14 02:43:11;;;;;;;4.22;1.83;;;2.40;78.60;;;;;;4945701;28;20082;-80
2021/01/14 02:45:36;;;;;;;6.65;2.13;;;2.30;78.70;;;;;;4939469;29;20139;-80
2021/01/14 02:48:04;;;;;;;5.15;2.08;;;2.30;78.90;;;;;;4940218;28;20711;-80
2021/01/14 02:50:34;;;;;;;4.85;2.05;;;2.30;79.00;;;;;;4939956;29;20046;-80
2021/01/14 02:53:02;;;;;;;1.40;0.88;;;2.30;78.90;;;;;;4957553;29;20408;-80
2021/01/14 02:55:29;;;;;;;2.90;1.13;;;2.30;78.90;;;;;;4924631;29;20487;-79
2021/01/14 02:57:56;;;;;;;4.55;1.90;;;2.30;78.90;;;;;;4938855;29;20468;-80
2021/01/14 03:00:21;;;;;;;2.72;1.40;;;2.30;78.90;;;;;;4936891;29;20492;-80
2021/01/14 03:02:47;;;;;;;2.38;1.40;;;2.20;78.80;;;;;;4923911;29;20184;-80
2021/01/14 03:05:13;;;;;;;3.60;1.60;;;2.20;78.70;;;;;;4939591;29;20035;-79
2021/01/14 03:07:39;;;;;;;4.50;1.63;;;2.10;78.80;;;;;;4939818;29;20035;-79
2021/01/14 03:10:05;;;;;;;4.80;1.23;;;2.10;78.80;;;;;;4939896;29;20082;-80
2021/01/14 03:12:31;;;;;;;6.05;1.67;;;2.10;78.70;;;;;;4924199;29;20039;-80
2021/01/14 03:14:57;;;;;;;1.40;1.00;;;2.00;78.70;;;;;;4938591;29;20380;-80
2021/01/14 03:17:23;;;;;;;1.42;1.30;;;2.00;78.90;;;;;;4938368;29;20035;-80
2021/01/14 03:19:48;;;;;;;3.25;1.60;;;2.00;78.90;;;;;;4938189;29;20024;-80
2021/01/14 03:22:14;;;;;;;2.20;1.33;;;2.00;79.00;;;;;;4956982;29;20513;-80
2021/01/14 03:24:40;;;;;;;4.18;1.50;;;2.00;79.00;;;;;;4938752;29;20055;-80
2021/01/14 03:27:06;;;;;;;0.95;0.85;;;2.00;78.90;;;;;;4956805;29;20027;-81
2021/01/14 03:29:32;;;;;;;4.38;1.60;;;2.00;79.00;;;;;;4941575;29;20036;-80
2021/01/14 03:32:02;;;;;;;4.90;1.38;;;2.00;78.90;;;;;;4920842;29;20503;-80
2021/01/14 03:34:28;;;;;;;2.05;1.27;;;2.00;79.10;;;;;;4939173;29;20033;-80
2021/01/14 03:36:57;;;;;;;5.75;1.38;;;2.00;79.00;;;;;;4939035;29;20027;-80
2021/01/14 03:39:24;;;;;;;0.30;0.30;;;2.00;79.10;;;;;;4939392;29;20090;-80
2021/01/14 03:41:51;;;;;;;1.90;0.98;;;2.00;79.00;;;;;;4938972;28;20023;-80
2021/01/14 03:44:17;;;;;;;1.63;1.35;;;2.00;79.00;;;;;;4923128;29;20542;-80
2021/01/14 03:46:48;;;;;;;2.13;0.98;;;2.00;78.90;;;;;;4939388;29;20117;-79
2021/01/14 03:49:14;;;;;;;2.97;1.25;;;2.00;78.90;;;;;;4934370;29;20137;-79
2021/01/14 03:51:42;;;;;;;0.50;0.50;;;2.00;78.90;;;;;;4956287;29;20111;-79
2021/01/14 03:54:09;;;;;;;2.28;1.23;;;1.90;78.90;;;;;;4956390;29;20032;-79
2021/01/14 03:56:42;;;;;;;5.38;1.90;;;2.00;79.00;;;;;;4921610;29;20023;-79
2021/01/14 03:59:08;;;;;;;6.28;1.90;;;2.00;79.00;;;;;;4939073;29;20424;-79
2021/01/14 04:01:34;;;;;;;3.35;1.70;;;2.00;78.80;;;;;;4939069;29;20140;-79
2021/01/14 04:04:00;;;;;;;3.38;1.40;;;1.90;78.80;;;;;;4939014;29;20143;-79
2021/01/14 04:06:36;;;;;;;4.03;1.50;;;2.00;79.00;;;;;;4939263;29;20026;-79
2021/01/14 04:09:06;;;;;;;4.28;1.45;;;1.90;78.90;;;;;;4939111;29;20058;-79
2021/01/14 04:11:32;;;;;;;3.33;1.20;;;2.00;79.00;;;;;;4956554;29;20051;-79
2021/01/14 04:13:59;;;;;;;2.15;1.25;;;2.00;78.90;;;;;;4939049;29;20118;-79
2021/01/14 04:16:26;;;;;;;5.97;1.60;;;2.00;78.90;;;;;;4938906;29;20066;-79
2021/01/14 04:18:51;;;;;;;2.25;1.33;;;2.00;78.90;;;;;;4956386;29;20387;-79
2021/01/14 04:21:18;;;;;;;5.47;1.23;;;2.00;78.70;;;;;;4938610;29;20023;-81
2021/01/14 04:23:44;;;;;;;5.32;1.63;;;1.90;78.70;;;;;;4938960;29;20023;-80
2021/01/14 04:26:10;;;;;;;3.03;1.73;;;1.90;78.70;;;;;;4938871;29;20038;-79
2021/01/14 04:28:39;;;;;;;4.13;1.42;;;1.90;78.80;;;;;;4936572;29;20031;-79
2021/01/14 04:31:06;;;;;;;3.35;1.50;;;1.90;78.70;;;;;;4938706;29;20054;-80
2021/01/14 04:33:31;;;;;;;5.05;1.85;;;1.90;78.80;;;;;;4922006;29;20039;-79
2021/01/14 04:36:00;;;;;;;6.03;1.55;;;1.90;78.70;;;;;;4938688;29;20376;-79
2021/01/14 04:38:27;;;;;;;3.97;1.50;;;1.90;78.80;;;;;;4955498;29;20476;-79
2021/01/14 04:40:59;;;;;;;2.55;1.38;;;1.90;78.80;;;;;;4938306;29;20023;-79
2021/01/14 04:43:27;;;;;;;1.25;1.10;;;1.90;78.80;;;;;;4955506;29;20027;-79
2021/01/14 04:46:04;;;;;;;1.25;0.93;;;1.90;78.80;;;;;;4938075;29;20069;-78
2021/01/14 04:48:40;;;;;;;1.17;1.02;;;1.90;78.80;;;;;;4951712;29;20087;-78
2021/01/14 04:51:11;;;;;;;6.88;1.75;;;1.90;78.80;;;;;;4955605;29;20024;-80
2021/01/14 04:53:43;;;;;;;3.80;1.70;;;1.90;78.90;;;;;;4937617;29;20427;-80
2021/01/14 04:56:11;;;;;;;5.20;1.60;;;1.90;78.90;;;;;;4930222;29;20066;-79
2021/01/14 04:58:42;;;;;;;2.55;1.35;;;1.90;78.90;;;;;;4937969;29;20024;-80
2021/01/14 05:01:20;;;;;;;3.00;1.60;;;1.90;78.90;;;;;;4937382;29;20061;-80
2021/01/14 05:03:48;;;;;;;2.38;1.30;;;1.90;78.90;;;;;;4934555;29;20066;-80
2021/01/14 05:06:17;;;;;;;11.40;4.03;;;1.90;78.80;;;;;;4954935;29;20035;-80
2021/01/14 05:08:51;;;;;;;6.35;1.83;;;1.80;78.80;;;;;;4938124;28;20490;-80
2021/01/14 05:11:18;;;;;;;3.00;1.65;;;1.80;78.90;;;;;;4959116;28;20435;-80
2021/01/14 05:13:45;;;;;;;6.22;1.92;;;1.80;78.90;;;;;;4937682;29;20134;-79
2021/01/14 05:16:12;;;;;;;3.72;1.75;;;1.80;78.80;;;;;;4937869;29;20023;-80
2021/01/14 05:18:38;;;;;;;4.80;1.77;;;1.80;78.90;;;;;;4937753;29;20035;-80
2021/01/14 05:21:07;;;;;;;2.35;1.23;;;1.80;78.70;;;;;;4937814;29;20034;-80
2021/01/14 05:23:33;;;;;;;4.07;1.88;;;1.80;78.80;;;;;;4940318;28;20432;-80
2021/01/14 05:26:00;;;;;;;5.32;1.67;;;1.70;78.70;;;;;;4941223;29;20039;-81
2021/01/14 05:28:28;;;;;;;2.90;1.63;;;1.70;78.70;;;;;;4954867;29;20039;-81
2021/01/14 05:31:15;;;;;;;5.28;1.65;;;1.70;78.60;;;;;;4954535;29;20741;-81
2021/01/14 05:33:41;;;;;;;6.50;1.40;;;1.70;78.80;;;;;;4954539;29;20031;-81
2021/01/14 05:36:07;;;;;;;3.70;1.50;;;1.70;78.70;;;;;;4921961;29;20439;-81
2021/01/14 05:38:34;;;;;;;2.65;1.33;;;1.70;78.60;;;;;;4936723;29;20240;-80
2021/01/14 05:41:18;;;;;;;2.83;1.27;;;1.60;78.60;;;;;;4954214;28;20384;-81
2021/01/14 05:43:58;;;;;;;16.65;5.43;;;1.60;78.70;;;;;;4954603;29;20027;-80
2021/01/14 05:46:25;;;;;;;1.73;0.90;;;1.60;78.70;;;;;;4936966;29;20059;-80
2021/01/14 05:48:56;;;;;;;2.35;1.20;;;1.60;78.70;;;;;;4954362;29;20043;-80
2021/01/14 05:51:27;;;;;;;5.82;1.42;;;1.60;78.70;;;;;;4931311;29;20015;-80
2021/01/14 05:54:29;;;;;;;1.95;1.13;;;1.60;78.60;;;;;;4936812;29;20791;-80
2021/01/14 05:56:58;;;;;;;2.97;1.45;;;1.60;78.70;;;;;;4954424;29;20196;-80
2021/01/14 05:59:33;;;;;;;3.88;1.65;;;1.60;78.50;;;;;;4954399;29;20058;-80
2021/01/14 06:02:02;;;;;;;1.45;0.75;;;1.60;78.50;;;;;;4932103;29;20030;-80
2021/01/14 06:04:32;;;;;;;1.17;0.88;;;1.50;78.50;;;;;;4921234;29;20039;-80
2021/01/14 06:07:02;;;;;;;3.35;1.08;;;1.50;78.50;;;;;;4936873;29;20479;-80
2021/01/14 06:09:29;;;;;;;0.90;0.60;;;1.50;78.60;;;;;;4953922;29;20054;-80
2021/01/14 06:12:09;;;;;;;3.80;1.40;;;1.50;78.50;;;;;;4936899;29;20031;-80
2021/01/14 06:14:34;;;;;;;3.30;1.17;;;1.50;78.50;;;;;;4950434;29;20122;-81
2021/01/14 06:17:03;;;;;;;1.23;1.00;;;1.50;78.50;;;;;;4937022;29;20114;-80
2021/01/14 06:19:33;;;;;;;0.60;0.60;;;1.50;78.70;;;;;;4937058;29;20031;-87
2021/01/14 06:22:08;;;;;;;1.58;0.50;;;1.50;78.70;;;;;;4931812;29;20118;-87
2021/01/14 06:24:40;;;;;;;4.90;1.52;;;1.50;78.60;;;;;;4937312;29;20049;-86
2021/01/14 06:27:06;;;;;;;1.00;0.75;;;1.60;78.70;;;;;;4937448;29;20023;-81
2021/01/14 06:29:42;;;;;;;1.17;0.80;;;1.60;78.70;;;;;;4935945;29;20081;-81
2021/01/14 06:32:18;;;;;;;1.95;0.88;;;1.60;78.90;;;;;;4936292;29;20020;-80
2021/01/14 06:34:49;;;;;;;0.75;0.75;;;1.70;78.80;;;;;;4936986;29;20027;-80
2021/01/14 06:37:21;;;;;;;2.65;1.00;;;1.60;78.70;;;;;;4953766;28;20464;-93
2021/01/14 06:40:01;;;;;;;1.02;0.70;;;1.60;78.50;;;;;;4939371;29;20472;-93
2021/01/14 06:42:35;;;;;;;2.45;1.30;;;1.60;78.40;;;;;;4922837;29;20027;-92
2021/01/14 06:45:09;;;;;;;;;;;1.50;78.50;;;;;;4938854;29;20020;-93
2021/01/14 06:47:41;;;;;;;0.50;0.50;;;1.50;78.50;;;;;;4938058;29;19915;-92
2021/01/14 06:50:24;;;;;;;3.45;1.40;;;1.50;78.40;;;;;;4937795;29;20552;-90
2021/01/14 06:53:20;;;;;;;2.03;0.93;;;1.50;78.50;;;;;;4936521;29;20535;-91
2021/01/14 06:55:46;;;;;;;3.50;1.35;;;1.50;78.40;;;;;;4937481;29;20019;-93
2021/01/14 06:58:13;;;;;;;2.05;0.93;;;1.50;78.50;;;;;;4941153;29;20027;-92
2021/01/14 07:00:50;;;;;;;0.73;0.70;;;1.50;78.40;;;;;;4925840;29;20028;-91
2021/01/14 07:03:24;;;;;;;2.17;1.60;;;1.40;77.80;;;;;;4952868;29;20024;-91
2021/01/14 07:05:56;;;;;;;5.72;1.30;;;1.40;78.30;;;;;;4941315;29;20031;-85
2021/01/14 07:08:42;;;;;;;4.93;0.90;;;1.40;78.40;;;;;;4940265;29;20110;-90
2021/01/14 07:11:15;;;;;;;3.97;1.30;;;1.40;78.60;;;;;;4937712;29;20031;-87
2021/01/14 07:13:45;;;;;;;4.05;1.83;;;1.40;78.40;;;;;;4939943;29;20035;-88
2021/01/14 07:16:13;;;;;;;4.57;1.48;;;1.40;78.60;;;;;;4940047;29;20388;-88
2021/01/14 07:18:41;;;;;;;1.27;0.98;;;1.50;78.80;;;;;;4936842;28;20030;-90
2021/01/14 07:21:31;;;;;;;0.77;0.68;;;1.50;78.60;;;;;;4940389;29;20055;-85
2021/01/14 07:24:00;;;;;;;1.75;0.95;;;1.50;79.30;;;;;;4939153;29;20379;-86
2021/01/14 07:26:29;;;;;;;0.77;0.70;;;1.50;78.90;;;;;;4940029;29;20019;-87
2021/01/14 07:28:55;;;;;;;5.00;1.70;;;1.60;79.60;;;;;;4939600;29;20027;-86
2021/01/14 07:31:22;;;;;;;4.43;1.13;;;1.60;78.90;;;;;;4940039;29;20027;-93
2021/01/14 07:33:48;;;;;;;4.28;0.95;;;1.70;79.00;;;;;;4939569;29;20027;-86
2021/01/14 07:36:21;;;;;;;1.52;1.17;;;1.70;78.90;;;;;;4923966;29;20078;-88
2021/01/14 07:38:51;;;;;;;1.45;1.10;;;1.70;78.90;;;;;;4938816;29;20055;-85
2021/01/14 07:41:47;;;;;;;3.67;1.23;;;1.70;78.60;;;;;;4938881;29;20063;-85
2021/01/14 07:44:19;;;;;;;5.97;1.23;;;1.80;78.70;;;;;;4926043;29;20028;-85
2021/01/14 07:46:50;;;;;;;4.22;1.42;;;1.80;78.90;;;;;;4939548;29;20023;-88
2021/01/14 07:52:54;;;;;;;1.33;1.10;;;1.80;78.80;;;;;;4906040;29;20032;-84
2021/01/14 07:55:28;;;;;;;0.57;0.57;;;1.90;79.00;;;;;;4912864;29;20047;-84
2021/01/14 07:58:13;;;;;;;2.88;1.05;;;1.80;78.80;;;;;;4938520;29;20023;-84
2021/01/14 08:00:42;;;;;;;6.07;2.20;;;1.90;78.80;;;;;;4942701;29;20031;-87
2021/01/14 08:03:13;;;;;;;2.10;1.10;;;2.00;79.00;;;;;;4938617;29;20038;-86
2021/01/14 08:06:02;;;;;;;1.38;0.82;;;1.90;78.90;;;;;;4939822;29;20082;-86
2021/01/14 08:08:38;;;;;;;0.68;0.60;;;2.00;78.80;;;;;;4934914;29;20023;-88
2021/01/14 08:11:19;;;;;;;1.05;0.98;;;2.00;78.70;;;;;;4938980;29;20491;-87
2021/01/14 08:14:07;;;;;;;3.88;1.52;;;2.00;78.50;;;;;;4939408;29;20047;-86
2021/01/14 08:16:41;;;;;;;3.10;1.33;;;2.00;78.60;;;;;;4939229;29;20122;-86
2021/01/14 08:20:19;;;;;;;1.55;0.98;;;2.00;78.80;;;;;;4939585;29;20166;-85
2021/01/14 08:23:16;;;;;;;;;;;;;;;;;;;;;
2021/01/14 08:26:03;;;;;;;;;;;;;;;;;;;;;
2021/01/14 08:29:02;;;;;;;;;;;;;;;;;;;;;
2021/01/14 08:31:44;;;;;;;6.50;2.10;;;2.10;78.60;;;;;;4938330;29;20019;-91
2021/01/14 08:34:29;;;;;;;2.78;1.48;;;2.10;78.90;;;;;;4908402;29;20043;-91
2021/01/14 08:37:23;;;;;;;;;;;2.20;78.70;;;;;;4939856;29;20037;-92
2021/01/14 08:39:52;;;;;;;1.30;0.82;;;2.20;78.80;;;;;;4923651;29;20390;-88
2021/01/14 08:42:28;;;;;;;4.95;1.75;;;2.30;78.80;;;;;;4938738;29;20024;-89
2021/01/14 08:44:54;;;;;;;3.15;1.27;;;2.30;78.90;;;;;;4939032;29;20027;-87
2021/01/14 08:47:52;;;;;;;2.92;1.38;;;2.30;78.70;;;;;;4938815;29;20023;-88
2021/01/14 08:50:49;;;;;;;4.45;1.13;;;2.40;78.80;;;;;;4947555;29;20542;-87
2021/01/14 08:53:38;;;;;;;1.90;1.27;;;2.40;78.70;;;;;;4915623;29;20039;-85
2021/01/14 09:10:19;;;;;;;3.63;1.30;;;2.40;78.30;;;;;;4839689;29;20044;-87
2021/01/14 09:23:38;;;;;;;1.90;1.20;;;2.50;78.30;;;;;;4866814;29;20076;-90
2021/01/14 09:26:15;;;;;;;1.45;1.25;;;2.50;78.40;;;;;;4846534;29;20103;-86
2021/01/14 09:28:41;;;;;;;2.83;1.52;;;2.60;78.40;;;;;;4868171;29;20082;-89
2021/01/14 09:31:10;;;;;;;4.25;1.58;;;2.70;78.90;;;;;;4916143;29;20050;-90
2021/01/14 09:33:49;;;;;;;0.85;0.80;;;2.80;78.90;;;;;;4886549;29;20048;-90
2021/01/14 09:36:24;;;;;;;4.20;1.27;;;2.80;78.70;;;;;;4903187;29;20111;-89
2021/01/14 09:38:54;;;;;;;;;;;2.80;78.30;;;;;;4915180;29;20054;-87
2021/01/14 09:41:34;;;;;;;2.30;1.27;;;2.80;78.50;;;;;;4926164;29;19957;-89
2021/01/14 09:44:02;;;;;;;1.65;1.25;;;2.90;78.70;;;;;;4933263;29;20423;-90
2021/01/14 09:46:36;;;;;;;2.10;1.27;;;2.90;77.60;;;;;;4938216;29;20477;-88
2021/01/14 09:49:07;;;;;;;3.70;1.30;;;2.90;78.00;;;;;;4937694;29;20039;-88
2021/01/14 09:52:12;;;;;;;1.75;1.13;;;2.90;78.00;;;;;;4936891;29;20060;-86
2021/01/14 09:54:41;;;;;;;2.80;1.58;;;2.80;77.90;;;;;;4916523;29;20542;-90
2021/01/14 09:57:18;;;;;;;3.88;1.75;;;2.90;78.10;;;;;;4937390;29;20027;-90
2021/01/14 09:59:49;;;;;;;9.10;2.78;;;2.80;77.90;;;;;;4936843;29;20046;-85
2021/01/14 10:03:15;;;;;;;;;;;;;;;;;;;;;
2021/01/14 10:20:02;;;;;;;;;;;;;;;;;;;;;
2021/01/14 10:33:26;;;;;;;20.60;7.47;;;4.00;78.30;;;;;;4917161;29;20175;-86
2021/01/14 10:43:21;;;;;;;;;;;;;;;;;;;;;
2021/01/14 10:46:10;;;;;;;5.80;2.17;;;3.60;77.00;;;;;;4927697;29;20046;-85
2021/01/14 10:48:38;;;;;;;10.27;2.90;;;3.40;77.00;;;;;;4935494;29;20042;-89
2021/01/14 10:51:04;;;;;;;3.67;1.77;;;3.50;77.50;;;;;;4941146;29;20100;-89
2021/01/14 10:53:32;;;;;;;6.65;2.45;;;3.50;77.80;;;;;;4941943;29;20038;-90
2021/01/14 10:56:06;;;;;;;21.90;7.60;;;3.70;77.90;;;;;;4940958;29;20074;-86
2021/01/14 10:58:33;;;;;;;12.75;4.10;;;3.60;77.70;;;;;;4939980;29;20039;-88
2021/01/14 11:00:59;;;;;;;7.55;2.53;;;3.70;78.30;;;;;;4940924;29;20023;-88
2021/01/14 11:03:27;;;;;;;6.72;2.60;;;3.90;78.40;;;;;;4940150;29;20027;-89
2021/01/14 11:05:58;;;;;;;6.97;2.53;;;4.10;78.70;;;;;;4939013;29;20527;-87
2021/01/14 11:08:38;;;;;;;6.57;2.40;;;4.10;78.10;;;;;;4942367;29;20062;-87
2021/01/14 11:11:12;;;;;;;8.63;3.05;;;4.10;77.90;;;;;;4939094;29;20034;-91
2021/01/14 11:13:49;;;;;;;15.77;6.18;;;4.10;77.80;;;;;;4937721;29;20396;-91
2021/01/14 11:16:46;;;;;;;10.23;3.88;;;4.00;77.50;;;;;;4942081;29;20041;-92
2021/01/14 11:19:36;;;;;;;8.77;3.67;;;3.80;77.10;;;;;;4945167;29;20066;-86
2021/01/14 11:22:31;;;;;;;5.90;2.70;;;3.90;77.30;;;;;;4952202;29;20020;-85
2021/01/14 11:25:09;;;;;;;9.43;3.83;;;3.90;77.50;;;;;;4950311;29;20035;-86
2021/01/14 11:31:27;;;;;;;5.68;1.77;;;3.70;76.80;;;;;;4877433;29;20034;-86
2021/01/14 11:34:53;;;;;;;;;;;;;;;;;;;;;
2021/01/14 11:41:09;;;;;;;6.90;2.90;;;3.60;76.80;;;;;;4844352;29;20037;-87
2021/01/14 11:44:32;;;;;;;;;;;;;;;;;;;;;
2021/01/14 11:47:34;;;;;;;;;;;;;;;;;;;;;
2021/01/14 11:50:12;;;;;;;2.72;1.35;;;3.80;77.70;;;;;;4858338;29;20453;-86
2021/01/14 11:52:45;;;;;;;2.30;1.27;;;3.70;77.50;;;;;;4863048;29;20041;-91
2021/01/14 11:55:13;;;;;;;4.68;2.03;;;3.70;77.20;;;;;;4861278;29;20117;-89
2021/01/14 11:57:45;;;;;;;5.85;1.92;;;3.80;77.30;;;;;;4848954;29;20037;-91
2021/01/14 12:00:12;;;;;;;7.43;2.53;;;3.90;78.00;;;;;;4866680;29;20056;-87
2021/01/14 12:02:38;;;;;;;7.88;2.72;;;3.80;77.50;;;;;;4858849;29;20038;-87
2021/01/14 12:05:07;;;;;;;10.60;4.03;;;3.90;78.00;;;;;;4910930;29;20044;-87
2021/01/14 12:07:34;;;;;;;5.70;2.10;;;4.00;77.50;;;;;;4942939;29;20031;-89
2021/01/14 12:10:11;;;;;;;8.88;3.30;;;4.10;77.00;;;;;;4939781;29;20557;-86
2021/01/14 12:12:38;;;;;;;7.10;3.13;;;4.00;77.50;;;;;;4934250;29;21950;-85
2021/01/14 12:15:05;;;;;;;5.68;2.35;;;4.20;77.90;;;;;;4938813;29;20399;-85
2021/01/14 12:17:48;;;;;;;7.95;3.17;;;4.10;77.00;;;;;;4939581;29;20019;-86
2021/01/14 12:20:14;;;;;;;8.40;3.35;;;4.00;76.90;;;;;;4933347;29;20027;-80
2021/01/14 12:22:42;;;;;;;13.15;3.47;;;3.90;76.80;;;;;;4938005;29;20031;-81
2021/01/14 12:25:09;;;;;;;2.80;1.60;;;3.90;76.90;;;;;;4955533;29;20023;-80
2021/01/14 12:27:36;;;;;;;11.40;4.30;;;3.90;76.90;;;;;;4937085;29;20110;-80
2021/01/14 12:30:03;;;;;;;9.75;3.22;;;3.90;76.80;;;;;;4922730;29;20038;-81
2021/01/14 12:32:32;;;;;;;8.07;3.10;;;3.80;76.80;;;;;;4937351;29;20460;-80
2021/01/14 12:34:59;;;;;;;2.97;1.45;;;3.80;76.70;;;;;;4937866;29;20041;-80
2021/01/14 12:37:27;;;;;;;8.25;3.42;;;3.80;76.70;;;;;;4937709;29;20029;-80
2021/01/14 12:39:53;;;;;;;6.18;2.55;;;3.80;77.20;;;;;;4923978;29;20496;-85
2021/01/14 12:42:18;;;;;;;17.10;5.03;;;3.80;77.10;;;;;;4932768;29;20126;-84
2021/01/14 12:44:44;;;;;;;11.40;4.03;;;3.90;77.10;;;;;;4937385;29;20063;-79
2021/01/14 12:47:10;;;;;;;5.70;2.38;;;3.80;77.00;;;;;;4937905;29;20030;-82
2021/01/14 12:49:38;;;;;;;8.02;2.72;;;3.70;76.80;;;;;;4937498;29;20523;-83
2021/01/14 12:52:04;;;;;;;9.95;3.50;;;3.80;77.10;;;;;;4943772;29;20023;-81
2021/01/14 12:54:30;;;;;;;9.82;3.33;;;3.70;76.80;;;;;;4921974;29;20078;-81
2021/01/14 12:56:56;;;;;;;7.97;2.47;;;3.80;76.90;;;;;;4937744;29;20031;-83
2021/01/14 12:59:22;;;;;;;13.48;5.38;;;3.70;76.50;;;;;;4938228;29;20027;-82
2021/01/14 13:01:48;;;;;;;6.85;2.90;;;3.70;76.60;;;;;;4938118;29;20019;-82
2021/01/14 13:04:16;;;;;;;3.90;2.20;;;3.60;76.90;;;;;;4937954;29;20365;-81
2021/01/14 13:06:45;;;;;;;13.77;6.20;;;3.70;76.90;;;;;;4921931;29;20050;-81
2021/01/14 13:09:11;;;;;;;8.48;3.33;;;3.70;76.90;;;;;;4930207;29;20207;-80
2021/01/14 13:11:39;;;;;;;5.57;2.38;;;3.70;77.00;;;;;;4937600;29;20027;-81
2021/01/14 13:14:05;;;;;;;3.47;1.35;;;3.70;77.20;;;;;;4937913;29;20042;-82
2021/01/14 13:17:06;;;;;;;6.25;2.92;;;3.80;77.20;;;;;;4954687;29;20440;-85
2021/01/14 13:20:08;;;;;;;5.30;2.40;;;3.70;76.60;;;;;;4862767;29;20543;-86
2021/01/14 13:22:30;;;;;;;1.75;1.10;;;3.70;76.40;;;;;;4921961;29;20031;-85
2021/01/14 13:24:58;;;;;;;2.50;1.25;;;3.70;76.50;;;;;;4921837;29;20090;-84
2021/01/14 13:27:24;;;;;;;6.90;2.60;;;3.60;76.60;;;;;;4938069;29;20023;-85
2021/01/14 13:29:53;;;;;;;17.63;5.35;;;3.60;76.40;;;;;;4923092;29;20082;-86
2021/01/14 13:32:18;;;;;;;13.32;4.88;;;3.60;76.70;;;;;;4940204;29;20482;-83
2021/01/14 13:34:50;;;;;;;11.52;4.72;;;3.50;76.30;;;;;;4938279;29;20031;-84
2021/01/14 13:37:16;;;;;;;8.55;2.72;;;3.50;76.50;;;;;;4921457;29;20110;-84
2021/01/14 13:40:04;;;;;;;5.72;2.47;;;3.40;76.50;;;;;;4937617;29;20073;-84
2021/01/14 13:42:35;;;;;;;6.68;2.30;;;3.30;76.30;;;;;;4935048;29;20031;-83
2021/01/14 13:45:04;;;;;;;1.13;0.90;;;3.40;76.40;;;;;;4921789;29;20078;-85
2021/01/14 13:47:33;;;;;;;5.95;1.67;;;3.30;76.30;;;;;;4937467;29;20024;-84
2021/01/14 13:50:08;;;;;;;5.80;1.63;;;3.30;76.30;;;;;;4936778;29;20062;-84
2021/01/14 13:52:51;;;;;;;;;;;3.30;76.80;;;;;;4937708;29;20027;-85
2021/01/14 13:55:24;;;;;;;1.30;0.85;;;3.30;76.50;;;;;;4930819;29;19938;-84
2021/01/14 13:57:50;;;;;;;5.45;2.50;;;3.30;76.40;;;;;;4936430;29;20468;-84
2021/01/14 14:00:16;;;;;;;8.15;2.72;;;3.20;76.60;;;;;;4919603;28;20079;-84
2021/01/14 14:02:48;;;;;;;19.73;8.13;;;3.20;76.60;;;;;;4924188;29;20106;-83
2021/01/14 14:05:14;;;;;;;11.55;4.72;;;3.30;76.50;;;;;;4944493;29;20046;-87
2021/01/14 14:07:46;;;;;;;12.13;4.78;;;3.30;76.90;;;;;;4944120;29;20027;-84
2021/01/14 14:10:12;;;;;;;11.15;3.53;;;3.40;77.00;;;;;;4934269;29;20038;-84
2021/01/14 14:12:40;;;;;;;10.98;3.83;;;3.40;77.10;;;;;;4927475;28;20788;-86
2021/01/14 14:15:07;;;;;;;10.27;3.60;;;3.40;76.70;;;;;;4960644;28;20479;-86
2021/01/14 14:17:33;;;;;;;15.85;5.20;;;3.40;76.60;;;;;;4944084;29;20464;-85
2021/01/14 14:19:59;;;;;;;7.38;2.42;;;3.40;76.70;;;;;;4947063;28;20158;-84
2021/01/14 14:22:25;;;;;;;12.07;3.88;;;3.50;76.50;;;;;;4943239;29;20337;-84
2021/01/14 14:25:08;;;;;;;12.43;6.03;;;3.40;76.40;;;;;;4928187;29;20480;-83
2021/01/14 14:27:35;;;;;;;7.43;3.17;;;3.40;77.40;;;;;;4937893;29;20019;-83
2021/01/14 14:30:15;;;;;;;6.97;2.97;;;3.40;76.60;;;;;;4939291;29;20498;-83
2021/01/14 14:32:44;;;;;;;11.20;4.18;;;3.30;76.50;;;;;;4918680;29;20024;-82
2021/01/14 14:35:13;;;;;;;8.55;4.18;;;3.30;76.30;;;;;;4942923;29;20087;-82
2021/01/14 14:38:06;;;;;;;7.65;3.28;;;3.30;76.70;;;;;;4942913;29;20026;-82
2021/01/14 14:40:40;;;;;;;10.07;3.08;;;3.30;76.70;;;;;;4909961;29;20377;-82
2021/01/14 14:43:07;;;;;;;7.90;2.83;;;3.20;76.30;;;;;;4942980;29;20078;-87